Terminal Aerodrome Forecast
Issued by NWS

Home | Current Version | Previous Version | Text Only | Print | Product List | Glossary On
Versions: 1 2 3 4 5 6 7 8 9 10 11 12 13 14
000
FTUS46 KOTX 291733
TAFMWH
TAF
KMWH 291733Z 2918/3018 22010KT P6SM SCT060
     FM292000 23013G21KT P6SM SCT060 SCT100
     FM300000 28017G23KT P6SM SKC
     FM300400 30012KT P6SM SKC
     FM300700 31006KT P6SM FEW250=

USA.gov is the U.S. government's official web portal to all federal, state and local government web resources and services.